Time;durP1;ratioP1;P1;durP2;ratioP2;P2;SDS_P1;SDS_P2;PMS_P1;PMS_P2;Temp;Humidity;BMP_temperature;BMP_pressure;BME280_temperature;BME280_humidity;BME280_pressure;Samples;Min_cycle;Max_cycle;Signal;HPM_P1;HPM_P2
2021/11/24 00:02:55;;;;;;;10.50;7.90;;;-0.90;99.90;;;;;;6205706;23;20218;-89
2021/11/24 00:06:32;;;;;;;;;;;;;;;;;;;;;
2021/11/24 00:08:49;;;;;;;11.03;8.20;;;-1.00;99.90;;;;;;6149687;23;20391;-90
2021/11/24 00:11:34;;;;;;;9.07;8.10;;;-1.00;99.90;;;;;;6176013;23;20399;-90
2021/11/24 00:14:02;;;;;;;9.70;6.73;;;-0.90;99.90;;;;;;6199899;23;20405;-91
2021/11/24 00:16:48;;;;;;;9.73;8.10;;;-0.90;99.90;;;;;;6202076;23;20553;-91
2021/11/24 00:19:40;;;;;;;9.33;7.83;;;-0.80;99.90;;;;;;6178090;23;20557;-92
2021/11/24 00:22:36;;;;;;;;;;;;;;;;;;;;;
2021/11/24 00:25:06;;;;;;;10.50;8.13;;;-0.80;99.90;;;;;;6202589;23;20702;-91
2021/11/24 00:27:43;;;;;;;10.40;7.90;;;-0.90;99.90;;;;;;6175757;23;20403;-92
2021/11/24 00:30:17;;;;;;;9.00;8.10;;;-1.00;99.90;;;;;;6199345;23;20416;-91
2021/11/24 00:32:45;;;;;;;10.30;7.87;;;-1.00;99.90;;;;;;6176902;23;20398;-91
2021/11/24 00:35:11;;;;;;;9.13;7.30;;;-1.10;99.90;;;;;;6201001;23;20438;-91
2021/11/24 00:37:42;;;;;;;8.57;7.57;;;-1.00;99.90;;;;;;6201510;23;20943;-90
2021/11/24 00:40:12;;;;;;;10.63;8.67;;;-1.00;99.90;;;;;;6174009;23;20732;-90
2021/11/24 00:42:40;;;;;;;13.67;9.37;;;-1.20;99.90;;;;;;6174760;23;20466;-91
2021/11/24 00:45:09;;;;;;;12.13;7.80;;;-1.30;99.90;;;;;;6201917;23;20744;-90
2021/11/24 00:47:38;;;;;;;9.07;8.07;;;-1.50;99.90;;;;;;6174936;23;20395;-90
2021/11/24 00:50:12;;;;;;;10.23;8.20;;;-1.30;99.90;;;;;;6200192;23;20390;-91
2021/11/24 00:52:40;;;;;;;10.43;8.30;;;-1.30;99.90;;;;;;6174891;23;20399;-90
2021/11/24 00:55:06;;;;;;;11.07;8.50;;;-1.30;99.90;;;;;;6174312;23;20462;-90
2021/11/24 00:57:32;;;;;;;12.17;9.43;;;-1.50;99.90;;;;;;6175084;23;20725;-90
2021/11/24 01:00:05;;;;;;;12.57;9.40;;;-1.60;99.90;;;;;;6176031;23;20394;-91
2021/11/24 01:02:31;;;;;;;9.90;8.70;;;-1.70;99.90;;;;;;6176533;23;20401;-91
2021/11/24 01:05:17;;;;;;;13.70;9.00;;;-1.60;99.90;;;;;;6201024;23;20717;-89
2021/11/24 01:08:22;;;;;;;10.40;8.90;;;-1.50;99.90;;;;;;6175805;23;20538;-89
2021/11/24 01:11:26;;;;;;;;;;;;;;;;;;;;;
2021/11/24 01:14:05;;;;;;;10.70;8.60;;;-1.60;99.90;;;;;;6178141;23;21808;-89
2021/11/24 01:16:39;;;;;;;10.90;8.90;;;-1.60;99.90;;;;;;6175821;23;20442;-89
2021/11/24 01:19:19;;;;;;;11.00;8.40;;;-1.50;99.90;;;;;;6173577;23;20422;-90
2021/11/24 01:21:52;;;;;;;11.10;7.43;;;-1.50;99.90;;;;;;6173837;23;20421;-91
2021/11/24 01:24:29;;;;;;;10.43;8.93;;;-1.50;99.90;;;;;;6173982;23;20405;-90
2021/11/24 01:27:33;;;;;;;11.93;9.67;;;-1.40;99.90;;;;;;6176663;23;20393;-89
2021/11/24 01:30:27;;;;;;;12.80;8.10;;;-1.40;99.90;;;;;;6175235;23;20391;-89
2021/11/24 01:36:15;;;;;;;10.97;8.30;;;-1.70;99.90;;;;;;6202387;23;20429;-89
2021/11/24 01:51:37;;;;;;;9.90;7.80;;;-1.60;99.90;;;;;;6189098;23;20407;-90
2021/11/24 01:54:03;;;;;;;11.57;7.97;;;-1.70;99.90;;;;;;6200586;23;20399;-91
2021/11/24 01:56:46;;;;;;;13.07;9.17;;;-1.70;99.90;;;;;;6201275;23;20608;-91
2021/11/24 02:02:35;;;;;;;10.47;8.00;;;-1.70;99.90;;;;;;6202841;23;20765;-90
2021/11/24 02:05:17;;;;;;;10.13;7.93;;;-1.90;99.90;;;;;;6200772;23;20440;-90
2021/11/24 02:08:27;;;;;;;;;;;;;;;;;;;;;
2021/11/24 02:14:47;;;;;;;;;;;;;;;;;;;;;
2021/11/24 02:17:34;;;;;;;8.27;7.47;;;-1.60;99.90;;;;;;6111715;23;20763;-90
2021/11/24 02:22:41;;;;;;;12.17;8.10;;;-1.60;99.90;;;;;;6202295;23;20402;-89
2021/11/24 02:25:22;;;;;;;10.00;8.07;;;-1.70;99.90;;;;;;6173392;23;20399;-89
2021/11/24 02:28:19;;;;;;;9.07;7.27;;;-1.70;99.90;;;;;;6175458;23;20474;-90
2021/11/24 02:30:48;;;;;;;10.17;7.30;;;-1.80;99.90;;;;;;6202374;23;20960;-90
2021/11/24 02:33:16;;;;;;;8.80;7.10;;;-1.80;99.90;;;;;;6176279;23;20390;-92
2021/11/24 02:35:46;;;;;;;8.90;6.97;;;-1.90;99.90;;;;;;6173618;23;20437;-91
2021/11/24 02:38:28;;;;;;;10.40;7.87;;;-1.90;99.90;;;;;;6176195;23;20510;-91
2021/11/24 02:41:17;;;;;;;10.17;7.40;;;-1.90;99.90;;;;;;6198779;23;20389;-89
2021/11/24 02:46:26;;;;;;;11.70;7.90;;;-1.80;99.90;;;;;;6205475;23;20393;-90
2021/11/24 02:48:52;;;;;;;9.70;8.20;;;-1.80;99.90;;;;;;6175346;23;20420;-90
2021/11/24 02:51:20;;;;;;;8.00;6.60;;;-1.80;99.90;;;;;;6196566;23;20390;-91
2021/11/24 02:53:46;;;;;;;10.80;7.53;;;-1.80;99.90;;;;;;6175739;23;20405;-90
2021/11/24 02:56:11;;;;;;;9.90;7.43;;;-2.00;99.90;;;;;;6201356;23;20938;-90
2021/11/24 02:58:39;;;;;;;8.80;7.67;;;-2.10;99.90;;;;;;6202038;23;20163;-89
2021/11/24 03:01:10;;;;;;;11.60;7.33;;;-2.20;99.90;;;;;;6175874;23;20250;-90
2021/11/24 03:03:36;;;;;;;9.60;7.30;;;-2.20;99.90;;;;;;6175954;23;20418;-90
2021/11/24 03:06:04;;;;;;;9.40;7.20;;;-2.20;99.90;;;;;;6202409;23;20707;-90
2021/11/24 03:08:31;;;;;;;10.53;7.10;;;-2.20;99.90;;;;;;6200713;23;20163;-90
2021/11/24 03:11:02;;;;;;;9.30;7.63;;;-2.20;99.90;;;;;;6175629;23;20946;-90
2021/11/24 03:13:28;;;;;;;8.90;7.13;;;-2.20;99.90;;;;;;6202544;23;20394;-90
2021/11/24 03:15:57;;;;;;;8.90;7.20;;;-2.20;99.90;;;;;;6201293;23;20452;-90
2021/11/24 03:21:09;;;;;;;8.77;6.93;;;-2.10;99.90;;;;;;6204288;23;20399;-90
2021/11/24 03:23:44;;;;;;;8.77;6.77;;;-2.10;99.90;;;;;;6201593;23;20437;-89
2021/11/24 03:26:10;;;;;;;9.30;7.10;;;-2.10;99.90;;;;;;6202591;23;20175;-91
2021/11/24 03:28:50;;;;;;;9.17;7.23;;;-2.00;99.90;;;;;;6200348;23;20605;-93
2021/11/24 03:31:20;;;;;;;9.23;7.27;;;-2.00;99.90;;;;;;6176850;23;20395;-91
2021/11/24 03:33:46;;;;;;;9.57;7.00;;;-1.90;99.90;;;;;;6202504;23;20395;-90
2021/11/24 03:36:15;;;;;;;10.23;8.20;;;-1.90;99.90;;;;;;6200617;23;20497;-90
2021/11/24 03:38:48;;;;;;;9.50;8.20;;;-2.00;99.90;;;;;;6202143;23;20907;-90
2021/11/24 03:41:17;;;;;;;12.17;10.20;;;-2.10;99.90;;;;;;6176457;23;20413;-89
2021/11/24 03:43:43;;;;;;;10.23;8.00;;;-2.00;99.90;;;;;;6201859;23;20409;-90
2021/11/24 03:46:11;;;;;;;9.00;7.40;;;-2.10;99.90;;;;;;6201062;23;20900;-90
2021/11/24 03:48:40;;;;;;;9.57;7.10;;;-2.00;99.90;;;;;;6200271;23;20162;-90
2021/11/24 03:51:13;;;;;;;12.00;7.67;;;-2.00;99.90;;;;;;6198507;23;20478;-91
2021/11/24 03:53:40;;;;;;;10.20;7.80;;;-2.20;99.90;;;;;;6174927;23;20704;-90
2021/11/24 03:56:13;;;;;;;9.07;7.27;;;-2.10;99.90;;;;;;6200554;23;20554;-92
2021/11/24 03:58:42;;;;;;;9.27;6.83;;;-2.10;99.90;;;;;;6177386;23;20399;-91
2021/11/24 04:04:04;;;;;;;8.87;6.43;;;-2.10;99.90;;;;;;6192000;23;20389;-93
2021/11/24 04:06:31;;;;;;;10.20;6.33;;;-2.00;99.90;;;;;;6178485;23;20963;-92
2021/11/24 04:09:53;;;;;;;9.33;6.63;;;-2.00;99.90;;;;;;6200360;23;20390;-90
2021/11/24 04:12:19;;;;;;;10.20;8.40;;;-2.00;99.90;;;;;;6174864;23;20478;-91
2021/11/24 04:14:47;;;;;;;9.47;7.37;;;-2.00;99.90;;;;;;6201545;23;20885;-90
2021/11/24 04:17:39;;;;;;;8.50;6.60;;;-2.10;99.90;;;;;;6176130;23;20172;-91
2021/11/24 04:22:45;;;;;;;8.80;6.47;;;-2.20;99.90;;;;;;6204065;23;20893;-91
2021/11/24 04:25:38;;;;;;;9.70;7.30;;;-2.20;99.90;;;;;;6200852;23;20410;-89
2021/11/24 04:31:23;;;;;;;9.67;6.70;;;-2.30;99.90;;;;;;6202406;23;20474;-90
2021/11/24 04:33:59;;;;;;;;;;;;;;;;;;;;;
2021/11/24 04:36:38;;;;;;;;;;;;;;;;;;;;;
2021/11/24 04:39:25;;;;;;;;;;;;;;;;;;;;;
2021/11/24 04:42:27;;;;;;;6.73;6.00;;;-2.30;99.90;;;;;;6178266;23;20413;-91
2021/11/24 04:45:54;;;;;;;;;;;;;;;;;;;;;
2021/11/24 04:48:42;;;;;;;;;;;;;;;;;;;;;
2021/11/24 04:51:37;;;;;;;11.13;7.00;;;-2.30;99.90;;;;;;6200787;23;20862;-90
2021/11/24 04:54:31;;;;;;;9.07;7.23;;;-2.30;99.90;;;;;;6199650;23;20799;-90
2021/11/24 05:00:14;;;;;;;9.23;7.50;;;-2.30;99.90;;;;;;6177827;23;20446;-90
2021/11/24 05:02:50;;;;;;;12.00;8.23;;;-2.30;99.90;;;;;;6198874;23;20398;-92
2021/11/24 05:44:04;;;;;;;11.47;8.27;;;-2.40;99.90;;;;;;6223810;22;20753;-89
